Time;durP1;ratioP1;P1;durP2;ratioP2;P2;SDS_P1;SDS_P2;PMS_P1;PMS_P2;Temp;Humidity;BMP_temperature;BMP_pressure;BME280_temperature;BME280_humidity;BME280_pressure;Samples;Min_cycle;Max_cycle;Signal;HPM_P1;HPM_P2
2023/08/23 00:01:22;;;;;;;217.57;203.73;;;;;;;;;;5007368;28;20176;-58
2023/08/23 00:03:47;;;;;;;185.65;172.50;;;;;;;;;;5009283;28;20022;-58
2023/08/23 00:06:12;;;;;;;203.90;190.30;;;;;;;;;;5008957;28;20171;-58
2023/08/23 00:08:37;;;;;;;232.23;216.00;;;;;;;;;;5004423;28;20038;-58
2023/08/23 00:11:02;;;;;;;208.93;194.30;;;;;;;;;;5008343;28;20554;-58
2023/08/23 00:13:28;;;;;;;187.77;175.37;;;;;;;;;;5009132;28;20045;-59
2023/08/23 00:15:53;;;;;;;212.57;196.90;;;;;;;;;;5009101;28;20033;-59
2023/08/23 00:18:18;;;;;;;270.67;250.70;;;;;;;;;;5006278;28;20096;-58
2023/08/23 00:20:43;;;;;;;208.25;194.57;;;;;;;;;;5009236;28;20505;-58
2023/08/23 00:23:08;;;;;;;189.07;175.90;;;;;;;;;;5001101;28;20148;-58
2023/08/23 00:25:33;;;;;;;214.50;198.00;;;;;;;;;;5004862;28;20032;-58
2023/08/23 00:27:58;;;;;;;226.37;210.27;;;;;;;;;;5002575;28;20049;-58
2023/08/23 00:30:24;;;;;;;209.03;193.77;;;;;;;;;;5001324;28;20121;-59
2023/08/23 00:32:49;;;;;;;265.77;245.40;;;;;;;;;;4995703;28;20433;-59
2023/08/23 00:35:14;;;;;;;214.30;198.07;;;;;;;;;;5008975;28;20105;-57
2023/08/23 00:37:39;;;;;;;202.23;187.80;;;;;;;;;;5002225;28;20850;-58
2023/08/23 00:40:06;;;;;;;346.77;312.90;;;;;;;;;;5003088;28;20101;-58
2023/08/23 00:42:32;;;;;;;343.70;310.23;;;;;;;;;;5005215;28;20101;-58
2023/08/23 00:44:57;;;;;;;252.93;232.77;;;;;;;;;;5002547;28;20117;-58
2023/08/23 00:47:22;;;;;;;232.15;215.40;;;;;;;;;;5008765;28;20476;-58
2023/08/23 00:49:47;;;;;;;205.40;190.07;;;;;;;;;;5002247;28;20125;-58
2023/08/23 00:52:12;;;;;;;235.50;218.60;;;;;;;;;;5002413;28;20532;-58
2023/08/23 00:54:37;;;;;;;287.03;262.30;;;;;;;;;;5009744;28;20445;-58
2023/08/23 00:57:03;;;;;;;240.03;220.83;;;;;;;;;;5003814;28;20068;-57
2023/08/23 00:59:30;;;;;;;286.52;264.35;;;;;;;;;;5009284;28;20500;-58
2023/08/23 01:01:55;;;;;;;204.40;189.45;;;;;;;;;;5012830;28;20020;-58
2023/08/23 01:04:20;;;;;;;204.25;189.50;;;;;;;;;;5013438;28;20108;-57
2023/08/23 01:06:52;;;;;;;240.03;222.07;;;;;;;;;;5007105;28;20029;-58
2023/08/23 01:09:36;;;;;;;247.80;227.95;;;;;;;;;;5012831;28;20053;-58
2023/08/23 01:12:11;;;;;;;249.82;230.73;;;;;;;;;;5004683;28;20023;-57
2023/08/23 01:14:40;;;;;;;302.25;275.95;;;;;;;;;;5004670;28;20034;-58
2023/08/23 01:17:05;;;;;;;253.73;233.90;;;;;;;;;;5012272;28;20049;-57
2023/08/23 01:19:42;;;;;;;217.65;201.95;;;;;;;;;;5011680;28;20136;-57
2023/08/23 01:22:09;;;;;;;275.90;253.20;;;;;;;;;;5011036;28;20026;-58
2023/08/23 01:24:34;;;;;;;210.45;194.27;;;;;;;;;;5007397;28;20501;-57
2023/08/23 01:27:00;;;;;;;257.70;238.55;;;;;;;;;;5010125;28;20044;-57
2023/08/23 01:29:25;;;;;;;225.87;209.80;;;;;;;;;;5013682;28;20104;-58
2023/08/23 01:31:53;;;;;;;225.40;208.33;;;;;;;;;;4998274;28;20018;-57
2023/08/23 01:34:22;;;;;;;250.05;230.73;;;;;;;;;;4996270;28;20085;-57
2023/08/23 01:36:49;;;;;;;313.05;288.13;;;;;;;;;;4997997;28;20096;-59
2023/08/23 01:39:15;;;;;;;303.25;278.95;;;;;;;;;;5000102;28;22031;-59
2023/08/23 01:41:40;;;;;;;265.73;246.00;;;;;;;;;;4995751;28;20575;-59
2023/08/23 01:44:06;;;;;;;295.20;269.37;;;;;;;;;;4996650;28;20029;-59
2023/08/23 01:46:32;;;;;;;207.13;192.77;;;;;;;;;;4996437;28;20057;-59
2023/08/23 01:48:58;;;;;;;242.73;224.25;;;;;;;;;;4995420;28;20526;-59
2023/08/23 01:51:23;;;;;;;217.97;202.40;;;;;;;;;;5003920;28;20030;-59
2023/08/23 01:53:48;;;;;;;224.68;208.13;;;;;;;;;;5008381;28;20033;-58
2023/08/23 01:56:13;;;;;;;264.47;242.33;;;;;;;;;;5006075;28;20455;-59
2023/08/23 01:58:39;;;;;;;234.60;215.50;;;;;;;;;;5009042;28;20028;-59
2023/08/23 02:01:04;;;;;;;312.53;286.37;;;;;;;;;;5008765;28;20085;-59
2023/08/23 02:03:29;;;;;;;262.17;240.43;;;;;;;;;;5006063;28;20442;-59
2023/08/23 02:05:55;;;;;;;312.43;287.07;;;;;;;;;;5007431;28;20105;-59
2023/08/23 02:08:20;;;;;;;235.18;217.30;;;;;;;;;;5005294;28;20021;-59
2023/08/23 02:10:45;;;;;;;267.53;246.03;;;;;;;;;;5009654;28;20101;-59
2023/08/23 02:13:10;;;;;;;280.83;256.48;;;;;;;;;;5008265;28;20049;-59
2023/08/23 02:15:35;;;;;;;355.77;325.40;;;;;;;;;;4998004;28;20042;-59
2023/08/23 02:18:01;;;;;;;294.10;268.92;;;;;;;;;;5004734;28;20022;-59
2023/08/23 02:20:26;;;;;;;264.53;241.93;;;;;;;;;;5009803;28;20037;-59
2023/08/23 02:22:51;;;;;;;387.60;357.10;;;;;;;;;;5004826;28;20416;-59
2023/08/23 02:25:16;;;;;;;212.60;196.53;;;;;;;;;;5011914;28;20037;-58
2023/08/23 02:27:41;;;;;;;223.63;205.63;;;;;;;;;;5010581;28;20025;-59
2023/08/23 02:30:07;;;;;;;260.70;241.05;;;;;;;;;;5010447;28;20420;-58
2023/08/23 02:32:33;;;;;;;283.55;260.45;;;;;;;;;;5004134;28;20033;-58
2023/08/23 02:34:58;;;;;;;346.77;315.00;;;;;;;;;;5011472;28;20038;-58
2023/08/23 02:37:23;;;;;;;262.48;242.02;;;;;;;;;;5006384;28;20470;-59
2023/08/23 02:39:48;;;;;;;249.60;229.00;;;;;;;;;;5009816;28;20025;-59
2023/08/23 02:42:13;;;;;;;173.07;158.97;;;;;;;;;;5005413;28;20389;-59
2023/08/23 02:44:38;;;;;;;299.80;275.17;;;;;;;;;;5011433;28;20018;-59
2023/08/23 02:47:04;;;;;;;270.00;248.03;;;;;;;;;;5010427;28;20017;-58
2023/08/23 02:49:29;;;;;;;244.67;224.37;;;;;;;;;;5012726;28;20072;-58
2023/08/23 02:51:54;;;;;;;188.33;174.10;;;;;;;;;;5011984;28;20022;-58
2023/08/23 02:54:19;;;;;;;237.67;218.83;;;;;;;;;;5008449;28;20080;-58
2023/08/23 02:56:44;;;;;;;179.93;165.73;;;;;;;;;;5011187;28;20508;-58
2023/08/23 02:59:09;;;;;;;240.32;220.75;;;;;;;;;;5006346;28;20527;-57
2023/08/23 03:01:35;;;;;;;149.67;137.90;;;;;;;;;;4999397;28;20044;-58
2023/08/23 03:04:00;;;;;;;262.13;240.43;;;;;;;;;;5010684;28;20434;-58
2023/08/23 03:06:25;;;;;;;222.80;203.60;;;;;;;;;;5011670;28;20397;-57
2023/08/23 03:08:50;;;;;;;268.23;244.37;;;;;;;;;;5005898;28;20035;-57
2023/08/23 03:11:15;;;;;;;231.03;211.40;;;;;;;;;;5012037;28;20076;-57
2023/08/23 03:13:41;;;;;;;193.10;177.40;;;;;;;;;;5009482;28;20087;-57
2023/08/23 03:16:06;;;;;;;240.17;220.73;;;;;;;;;;5006908;28;20501;-58
2023/08/23 03:18:31;;;;;;;199.63;183.20;;;;;;;;;;5005938;28;20044;-57
2023/08/23 03:20:56;;;;;;;242.45;222.35;;;;;;;;;;5006664;28;20076;-57
2023/08/23 03:23:21;;;;;;;228.17;210.10;;;;;;;;;;5010839;28;20041;-57
2023/08/23 03:25:48;;;;;;;314.07;288.17;;;;;;;;;;5014630;28;20033;-57
2023/08/23 03:28:13;;;;;;;240.02;220.02;;;;;;;;;;5008147;28;20037;-62
2023/08/23 03:30:38;;;;;;;218.80;200.18;;;;;;;;;;4998462;28;20026;-62
2023/08/23 03:33:04;;;;;;;222.50;204.48;;;;;;;;;;5010280;28;20490;-61
2023/08/23 03:35:29;;;;;;;290.80;269.25;;;;;;;;;;5002316;28;20025;-62
2023/08/23 03:37:54;;;;;;;332.03;307.97;;;;;;;;;;4993854;28;20061;-61
2023/08/23 03:40:19;;;;;;;280.70;260.90;;;;;;;;;;4997377;28;20492;-62
2023/08/23 03:42:44;;;;;;;342.23;313.27;;;;;;;;;;4999035;28;20107;-61
2023/08/23 03:45:10;;;;;;;259.33;240.63;;;;;;;;;;5006489;28;20026;-61
2023/08/23 03:47:35;;;;;;;335.02;310.08;;;;;;;;;;5010442;28;20026;-61
2023/08/23 03:50:00;;;;;;;290.57;268.13;;;;;;;;;;5009758;28;20028;-61
2023/08/23 03:52:25;;;;;;;276.05;256.90;;;;;;;;;;5009475;28;20030;-62
2023/08/23 03:54:51;;;;;;;325.60;300.73;;;;;;;;;;5003615;28;20030;-61
2023/08/23 03:57:16;;;;;;;340.88;311.13;;;;;;;;;;5006800;28;20026;-62
2023/08/23 03:59:41;;;;;;;327.80;302.23;;;;;;;;;;5005564;28;20144;-62
2023/08/23 04:02:06;;;;;;;334.83;308.77;;;;;;;;;;5008147;28;20095;-62
2023/08/23 04:04:32;;;;;;;290.93;267.20;;;;;;;;;;5004997;28;20631;-62
2023/08/23 04:06:57;;;;;;;323.17;297.38;;;;;;;;;;5008086;28;20104;-62
2023/08/23 04:09:22;;;;;;;316.40;292.92;;;;;;;;;;5008179;28;20121;-61
2023/08/23 04:11:47;;;;;;;271.83;251.73;;;;;;;;;;5009942;28;20093;-61
2023/08/23 04:14:12;;;;;;;336.70;309.00;;;;;;;;;;5002883;28;20516;-62
2023/08/23 04:16:38;;;;;;;305.90;281.43;;;;;;;;;;5006220;28;20041;-62
2023/08/23 04:19:03;;;;;;;263.73;244.17;;;;;;;;;;4995443;28;20027;-61
2023/08/23 04:21:28;;;;;;;347.17;319.80;;;;;;;;;;5007954;28;20037;-65
2023/08/23 04:23:53;;;;;;;282.45;262.60;;;;;;;;;;5005037;28;20022;-70
2023/08/23 04:26:19;;;;;;;319.97;295.77;;;;;;;;;;4999703;28;20031;-66
2023/08/23 04:28:45;;;;;;;307.25;282.77;;;;;;;;;;5004312;28;20014;-65
2023/08/23 04:31:10;;;;;;;314.48;288.15;;;;;;;;;;5001204;28;20022;-65
2023/08/23 04:33:35;;;;;;;301.70;278.93;;;;;;;;;;4997269;28;20046;-65
2023/08/23 04:36:02;;;;;;;310.50;286.70;;;;;;;;;;5003565;28;20469;-69
2023/08/23 04:38:27;;;;;;;299.60;276.35;;;;;;;;;;4995381;28;20491;-65
2023/08/23 04:40:59;;;;;;;355.37;327.10;;;;;;;;;;4992201;28;20463;-66
2023/08/23 04:43:24;;;;;;;342.35;314.52;;;;;;;;;;4997653;28;20113;-66
2023/08/23 04:45:52;;;;;;;342.07;310.33;;;;;;;;;;4997002;28;20129;-67
2023/08/23 04:48:17;;;;;;;358.98;333.65;;;;;;;;;;4996492;28;20029;-68
2023/08/23 04:50:42;;;;;;;367.17;337.73;;;;;;;;;;5003860;28;20566;-64
2023/08/23 04:53:07;;;;;;;352.08;327.00;;;;;;;;;;5003105;28;20022;-65
2023/08/23 04:55:32;;;;;;;331.27;306.17;;;;;;;;;;5003254;28;20038;-64
2023/08/23 04:57:58;;;;;;;339.67;311.30;;;;;;;;;;4998214;28;20022;-66
2023/08/23 05:00:23;;;;;;;309.90;284.80;;;;;;;;;;4997471;28;20031;-64
2023/08/23 05:02:48;;;;;;;312.00;288.60;;;;;;;;;;4990427;28;20049;-66
2023/08/23 05:05:13;;;;;;;311.63;289.58;;;;;;;;;;4989988;28;20033;-64
2023/08/23 05:07:38;;;;;;;306.43;282.23;;;;;;;;;;4991746;28;20033;-64
2023/08/23 05:10:04;;;;;;;373.10;343.20;;;;;;;;;;4991292;28;20027;-63
2023/08/23 05:12:29;;;;;;;321.13;294.92;;;;;;;;;;4993312;28;20437;-64
2023/08/23 05:14:54;;;;;;;267.60;247.33;;;;;;;;;;4990331;28;20431;-66
2023/08/23 05:17:21;;;;;;;313.90;292.43;;;;;;;;;;4996341;28;20038;-65
2023/08/23 05:19:46;;;;;;;324.17;299.48;;;;;;;;;;5004582;28;20014;-66
2023/08/23 05:22:11;;;;;;;305.03;281.87;;;;;;;;;;5001670;28;20018;-65
2023/08/23 05:24:37;;;;;;;353.87;328.00;;;;;;;;;;4996027;28;20394;-66
2023/08/23 05:27:02;;;;;;;353.23;325.07;;;;;;;;;;5006746;28;20030;-64
2023/08/23 05:29:27;;;;;;;313.63;291.40;;;;;;;;;;5003917;28;20044;-64
2023/08/23 05:31:52;;;;;;;326.90;302.77;;;;;;;;;;5007483;28;20393;-64
2023/08/23 05:34:17;;;;;;;316.47;293.47;;;;;;;;;;5002481;28;20054;-64
2023/08/23 05:36:42;;;;;;;328.63;303.80;;;;;;;;;;5009049;28;20497;-66
2023/08/23 05:39:09;;;;;;;321.23;297.43;;;;;;;;;;5003177;28;20076;-65
2023/08/23 05:41:34;;;;;;;292.48;270.05;;;;;;;;;;5000250;28;20384;-64
2023/08/23 05:43:59;;;;;;;336.10;311.00;;;;;;;;;;4999531;28;20025;-66
2023/08/23 05:46:24;;;;;;;318.20;292.93;;;;;;;;;;4996657;28;20022;-64
2023/08/23 05:48:50;;;;;;;303.07;281.27;;;;;;;;;;5005836;28;20045;-63
2023/08/23 05:51:15;;;;;;;325.63;301.97;;;;;;;;;;5011344;28;20030;-65
2023/08/23 05:53:40;;;;;;;348.60;320.33;;;;;;;;;;5013619;28;20116;-64
2023/08/23 05:56:05;;;;;;;386.88;352.58;;;;;;;;;;4998734;28;20476;-63
2023/08/23 05:58:31;;;;;;;303.17;279.67;;;;;;;;;;5009584;28;20026;-63
2023/08/23 06:00:56;;;;;;;348.53;322.43;;;;;;;;;;5005091;28;20034;-65
2023/08/23 06:03:21;;;;;;;312.23;286.93;;;;;;;;;;5005403;28;20460;-65
2023/08/23 06:05:47;;;;;;;293.87;272.57;;;;;;;;;;5010417;28;20022;-65
2023/08/23 06:08:12;;;;;;;261.83;242.93;;;;;;;;;;5008870;28;20488;-65
2023/08/23 06:10:37;;;;;;;305.87;284.27;;;;;;;;;;4995594;28;20057;-63
2023/08/23 06:13:03;;;;;;;277.60;257.20;;;;;;;;;;5001989;28;20026;-65
2023/08/23 06:15:28;;;;;;;283.80;263.88;;;;;;;;;;5001687;28;20087;-65
2023/08/23 06:17:54;;;;;;;307.13;285.87;;;;;;;;;;5006917;28;20042;-63
2023/08/23 06:20:19;;;;;;;;;;;;;;;;;;5011825;28;20532;-63
2023/08/23 06:22:44;;;;;;;294.50;274.08;;;;;;;;;;5013197;28;20345;-63
2023/08/23 06:25:09;;;;;;;262.57;245.03;;;;;;;;;;5013121;28;20025;-64
2023/08/23 06:27:35;;;;;;;315.50;290.10;;;;;;;;;;5010019;28;20022;-63
2023/08/23 06:30:00;;;;;;;311.17;287.17;;;;;;;;;;5003955;28;20049;-65
2023/08/23 06:32:25;;;;;;;334.15;310.40;;;;;;;;;;5007731;28;20033;-63
2023/08/23 06:34:52;;;;;;;345.23;319.63;;;;;;;;;;5006746;28;20037;-64
2023/08/23 06:37:18;;;;;;;345.70;321.15;;;;;;;;;;5012223;28;20104;-65
2023/08/23 06:39:43;;;;;;;310.27;288.67;;;;;;;;;;5008581;28;20176;-63
2023/08/23 06:42:08;;;;;;;323.80;298.43;;;;;;;;;;4996505;28;20037;-64
2023/08/23 06:44:33;;;;;;;318.87;296.30;;;;;;;;;;5005443;28;20389;-56
2023/08/23 06:46:58;;;;;;;326.23;302.00;;;;;;;;;;4992786;28;20030;-57
2023/08/23 06:49:23;;;;;;;352.10;325.20;;;;;;;;;;4994511;28;20026;-57
2023/08/23 06:51:49;;;;;;;359.33;331.77;;;;;;;;;;4993721;28;20057;-57
2023/08/23 06:54:14;;;;;;;325.13;299.67;;;;;;;;;;4997853;28;20017;-57
2023/08/23 06:56:39;;;;;;;365.53;335.83;;;;;;;;;;4997883;28;20090;-57
2023/08/23 06:59:04;;;;;;;334.47;310.30;;;;;;;;;;5010591;28;20092;-57
2023/08/23 07:01:29;;;;;;;327.17;303.40;;;;;;;;;;5010255;28;20109;-56
2023/08/23 07:03:54;;;;;;;328.43;304.87;;;;;;;;;;5012299;28;20413;-57
2023/08/23 07:06:20;;;;;;;347.50;321.60;;;;;;;;;;5012287;28;20018;-56
2023/08/23 07:08:45;;;;;;;398.98;368.95;;;;;;;;;;5003180;28;20049;-57
2023/08/23 07:11:10;;;;;;;315.10;293.30;;;;;;;;;;5004546;28;20025;-57
2023/08/23 07:13:36;;;;;;;342.27;318.07;;;;;;;;;;5012370;28;20026;-57
2023/08/23 07:16:01;;;;;;;364.95;337.58;;;;;;;;;;5012340;28;20026;-57
2023/08/23 07:18:28;;;;;;;318.92;292.92;;;;;;;;;;5011937;28;20022;-57
2023/08/23 07:20:53;;;;;;;337.52;313.75;;;;;;;;;;5012868;28;20013;-57
2023/08/23 07:23:19;;;;;;;313.43;286.47;;;;;;;;;;5011950;28;20499;-57
2023/08/23 07:25:44;;;;;;;349.20;323.30;;;;;;;;;;5025109;28;20111;-57
2023/08/23 07:28:10;;;;;;;314.88;292.05;;;;;;;;;;5003255;28;20018;-57
2023/08/23 07:30:35;;;;;;;339.93;314.17;;;;;;;;;;5012314;28;20021;-58
2023/08/23 07:33:00;;;;;;;334.07;309.67;;;;;;;;;;5008726;28;20452;-58
2023/08/23 07:35:26;;;;;;;331.20;305.10;;;;;;;;;;5012015;28;20029;-57
2023/08/23 07:37:51;;;;;;;336.05;311.60;;;;;;;;;;5002454;28;20440;-58
2023/08/23 07:40:16;;;;;;;340.23;314.40;;;;;;;;;;5008795;28;20018;-58
2023/08/23 07:42:41;;;;;;;292.53;272.30;;;;;;;;;;5007438;28;20041;-59
2023/08/23 07:45:07;;;;;;;289.05;267.58;;;;;;;;;;5012157;28;20429;-57
2023/08/23 07:47:32;;;;;;;318.27;295.92;;;;;;;;;;5002350;28;20018;-58
2023/08/23 07:49:57;;;;;;;318.93;294.33;;;;;;;;;;4995546;28;20478;-59
2023/08/23 07:52:23;;;;;;;212.43;198.47;;;;;;;;;;5011965;28;20018;-57
2023/08/23 07:54:48;;;;;;;235.87;215.53;;;;;;;;;;5011652;28;20062;-58
2023/08/23 07:57:13;;;;;;;225.50;209.37;;;;;;;;;;5011050;28;20026;-60
2023/08/23 07:59:38;;;;;;;296.52;275.88;;;;;;;;;;4995189;28;20033;-58
2023/08/23 08:02:04;;;;;;;309.87;285.53;;;;;;;;;;5005738;28;20032;-58
2023/08/23 08:04:30;;;;;;;270.38;252.63;;;;;;;;;;4993974;28;20485;-57
2023/08/23 08:06:55;;;;;;;288.92;270.20;;;;;;;;;;4999917;28;20022;-58
2023/08/23 08:09:21;;;;;;;330.75;306.08;;;;;;;;;;5003554;28;20037;-58
2023/08/23 08:11:46;;;;;;;287.10;265.23;;;;;;;;;;4991778;28;20058;-58
2023/08/23 08:14:11;;;;;;;259.83;240.53;;;;;;;;;;5002563;28;20025;-59
2023/08/23 08:16:36;;;;;;;256.97;240.17;;;;;;;;;;4997418;28;20037;-58
2023/08/23 08:19:01;;;;;;;278.92;261.15;;;;;;;;;;4999728;28;20036;-58
2023/08/23 08:21:27;;;;;;;260.37;243.43;;;;;;;;;;4992008;28;20418;-57
2023/08/23 08:23:52;;;;;;;289.67;267.33;;;;;;;;;;4991587;28;20034;-58
2023/08/23 08:26:17;;;;;;;283.83;262.27;;;;;;;;;;4991026;28;20100;-59
2023/08/23 08:28:43;;;;;;;278.43;256.10;;;;;;;;;;4999952;28;20025;-58
2023/08/23 08:31:09;;;;;;;233.45;217.45;;;;;;;;;;4993609;28;20029;-58
2023/08/23 08:33:34;;;;;;;238.93;221.45;;;;;;;;;;4991399;28;20018;-58
2023/08/23 08:36:00;;;;;;;263.60;245.70;;;;;;;;;;4991148;28;20023;-57
2023/08/23 08:38:25;;;;;;;258.83;241.88;;;;;;;;;;4990876;28;20011;-58
2023/08/23 08:40:51;;;;;;;374.47;339.90;;;;;;;;;;4991355;28;20061;-57
2023/08/23 08:43:17;;;;;;;;;;;;;;;;;;5006465;28;20544;-60
2023/08/23 08:45:43;;;;;;;276.40;256.33;;;;;;;;;;5006398;28;19906;-58
2023/08/23 08:48:08;;;;;;;224.97;209.30;;;;;;;;;;5005840;28;20046;-58
2023/08/23 08:50:33;;;;;;;294.10;273.93;;;;;;;;;;5004287;28;20083;-58
2023/08/23 08:52:59;;;;;;;304.75;284.23;;;;;;;;;;5001360;28;20037;-58
2023/08/23 08:55:25;;;;;;;301.58;280.67;;;;;;;;;;4991341;28;20103;-58
2023/08/23 08:57:53;;;;;;;308.50;284.35;;;;;;;;;;5002546;28;20026;-59
2023/08/23 09:00:21;;;;;;;328.75;302.42;;;;;;;;;;5008251;28;20037;-58
2023/08/23 09:02:47;;;;;;;264.40;246.52;;;;;;;;;;4994820;28;20367;-58
2023/08/23 09:05:13;;;;;;;260.27;240.18;;;;;;;;;;5010244;28;20152;-58
2023/08/23 09:07:38;;;;;;;264.38;244.50;;;;;;;;;;5005251;28;20018;-57
2023/08/23 09:10:03;;;;;;;311.48;289.98;;;;;;;;;;4991319;28;20014;-57
2023/08/23 09:12:29;;;;;;;242.98;226.82;;;;;;;;;;5004469;28;20021;-58
2023/08/23 09:14:54;;;;;;;294.67;275.25;;;;;;;;;;4996951;28;20030;-57
2023/08/23 09:17:20;;;;;;;249.50;233.10;;;;;;;;;;5007156;28;20364;-59
2023/08/23 09:19:45;;;;;;;282.30;263.80;;;;;;;;;;5002489;28;20021;-59
2023/08/23 09:22:11;;;;;;;253.33;237.33;;;;;;;;;;5012927;28;20025;-59
2023/08/23 09:24:36;;;;;;;234.97;219.20;;;;;;;;;;5014902;28;20018;-58
2023/08/23 09:27:01;;;;;;;;;;;;;;;;;;5012247;28;20025;-59
2023/08/23 09:29:27;;;;;;;235.65;220.95;;;;;;;;;;5006974;28;20008;-56
2023/08/23 09:31:52;;;;;;;;;;;;;;;;;;5006685;28;20030;-57
2023/08/23 09:34:17;;;;;;;249.10;229.10;;;;;;;;;;5007059;28;20314;-59
2023/08/23 09:36:42;;;;;;;240.40;224.23;;;;;;;;;;4994103;28;20014;-58
2023/08/23 09:39:09;;;;;;;271.13;250.30;;;;;;;;;;4994971;28;20488;-58
2023/08/23 09:41:38;;;;;;;288.55;265.13;;;;;;;;;;5008404;28;20058;-57
2023/08/23 09:44:04;;;;;;;279.27;260.58;;;;;;;;;;5012581;28;20448;-58
2023/08/23 09:46:32;;;;;;;285.63;264.77;;;;;;;;;;5012613;28;20018;-58
2023/08/23 09:48:58;;;;;;;312.48;288.35;;;;;;;;;;5005749;28;20022;-56
2023/08/23 09:51:26;;;;;;;260.13;240.50;;;;;;;;;;5013829;28;20373;-57
2023/08/23 09:53:54;;;;;;;261.02;242.88;;;;;;;;;;5013103;28;20079;-58
2023/08/23 09:56:19;;;;;;;276.33;257.70;;;;;;;;;;5008465;28;20633;-57
2023/08/23 09:58:45;;;;;;;240.48;222.43;;;;;;;;;;5006418;28;20018;-58
2023/08/23 10:01:10;;;;;;;;;;;;;;;;;;5006241;28;20041;-57
2023/08/23 10:03:35;;;;;;;247.13;230.32;;;;;;;;;;4996407;28;19933;-57
2023/08/23 10:06:02;;;;;;;303.45;280.63;;;;;;;;;;4996464;28;20646;-58
2023/08/23 10:08:27;;;;;;;267.13;249.60;;;;;;;;;;5009339;28;20026;-57
2023/08/23 10:10:54;;;;;;;321.17;297.83;;;;;;;;;;5006284;28;20026;-57
2023/08/23 10:13:20;;;;;;;261.58;244.43;;;;;;;;;;5014180;28;20963;-57
2023/08/23 10:15:45;;;;;;;263.75;246.50;;;;;;;;;;5011272;28;20026;-57
2023/08/23 10:18:13;;;;;;;282.23;264.23;;;;;;;;;;5011077;28;20037;-57
2023/08/23 10:20:38;;;;;;;272.80;252.43;;;;;;;;;;5005128;28;20424;-57
2023/08/23 10:23:03;;;;;;;;;;;;;;;;;;5013359;28;20610;-57
2023/08/23 10:25:31;;;;;;;249.57;230.90;;;;;;;;;;5004742;28;19917;-57
2023/08/23 10:27:57;;;;;;;270.35;252.18;;;;;;;;;;4997034;28;20027;-58
2023/08/23 10:30:23;;;;;;;;;;;;;;;;;;5006103;28;20022;-57
2023/08/23 10:32:48;;;;;;;228.85;210.90;;;;;;;;;;5008382;28;19965;-57
2023/08/23 10:35:13;;;;;;;;;;;;;;;;;;5013376;28;20057;-57
2023/08/23 10:37:40;;;;;;;316.58;291.13;;;;;;;;;;5001290;28;19976;-57
2023/08/23 10:40:08;;;;;;;275.80;255.55;;;;;;;;;;5003562;28;20026;-57
2023/08/23 10:42:33;;;;;;;320.13;295.70;;;;;;;;;;5012325;28;20477;-57
2023/08/23 10:44:59;;;;;;;;;;;;;;;;;;5005200;28;20037;-57
2023/08/23 10:47:24;;;;;;;304.27;281.50;;;;;;;;;;5012402;28;19974;-57
2023/08/23 10:49:49;;;;;;;;;;;;;;;;;;5013336;28;20053;-57
2023/08/23 10:52:15;;;;;;;298.48;275.20;;;;;;;;;;5000664;28;19906;-56
2023/08/23 10:54:40;;;;;;;254.17;236.33;;;;;;;;;;4995882;28;20375;-56
2023/08/23 10:57:05;;;;;;;;;;;;;;;;;;5001432;28;20105;-57
2023/08/23 10:59:30;;;;;;;226.98;211.65;;;;;;;;;;4993015;28;19917;-58
2023/08/23 11:01:56;;;;;;;;;;;;;;;;;;4993820;28;20030;-58
2023/08/23 11:04:21;;;;;;;228.60;213.20;;;;;;;;;;4992885;28;20284;-58
2023/08/23 11:06:47;;;;;;;396.98;364.92;;;;;;;;;;5006095;28;20473;-57
2023/08/23 11:09:12;;;;;;;;;;;;;;;;;;4994328;28;20018;-57
2023/08/23 11:11:37;;;;;;;284.23;263.02;;;;;;;;;;5010026;28;19913;-57
2023/08/23 11:14:03;;;;;;;301.43;280.57;;;;;;;;;;4995111;28;20371;-58
2023/08/23 11:16:28;;;;;;;;;;;;;;;;;;4992643;28;20124;-58
2023/08/23 11:18:53;;;;;;;251.93;233.27;;;;;;;;;;5000245;28;19917;-58
2023/08/23 11:21:18;;;;;;;253.37;235.17;;;;;;;;;;5000421;28;20054;-57
2023/08/23 11:23:44;;;;;;;309.90;288.30;;;;;;;;;;5007763;28;20800;-57
2023/08/23 11:26:09;;;;;;;;;;;;;;;;;;5004590;28;20021;-57
2023/08/23 11:28:34;;;;;;;248.77;227.70;;;;;;;;;;5011898;28;19905;-57
2023/08/23 11:30:59;;;;;;;268.13;250.73;;;;;;;;;;5012302;28;20018;-57
2023/08/23 11:33:24;;;;;;;;;;;;;;;;;;4993526;28;20022;-56
2023/08/23 11:35:50;;;;;;;244.88;228.43;;;;;;;;;;5009303;28;19959;-58
2023/08/23 11:38:15;;;;;;;;;;;;;;;;;;5003390;28;20049;-58
2023/08/23 11:40:43;;;;;;;257.45;241.30;;;;;;;;;;5003940;28;19956;-58
2023/08/23 11:43:08;;;;;;;311.83;289.02;;;;;;;;;;5004503;28;20092;-58
2023/08/23 11:45:33;;;;;;;;;;;;;;;;;;5008862;28;20018;-59
2023/08/23 11:47:58;;;;;;;318.60;294.27;;;;;;;;;;5010490;28;19921;-58
2023/08/23 11:50:24;;;;;;;;;;;;;;;;;;5012076;28;20041;-58
2023/08/23 11:52:49;;;;;;;268.45;247.77;;;;;;;;;;5010232;28;19959;-58
2023/08/23 11:55:22;;;;;;;257.20;239.17;;;;;;;;;;5011417;28;20488;-58
2023/08/23 11:57:51;;;;;;;265.33;243.35;;;;;;;;;;5009534;28;20446;-58
2023/08/23 12:00:16;;;;;;;253.10;236.82;;;;;;;;;;5001571;28;20033;-58
2023/08/23 12:02:41;;;;;;;;;;;;;;;;;;5011636;28;20051;-59
2023/08/23 12:05:08;;;;;;;243.38;225.00;;;;;;;;;;5010799;28;20479;-59
2023/08/23 12:07:33;;;;;;;265.30;245.75;;;;;;;;;;5009212;28;20046;-58
2023/08/23 12:09:58;;;;;;;;;;;;;;;;;;5009363;28;20018;-57
2023/08/23 12:12:23;;;;;;;291.43;269.30;;;;;;;;;;5008839;28;20011;-57
2023/08/23 12:14:48;;;;;;;;;;;;;;;;;;5007406;28;20033;-58
2023/08/23 12:17:13;;;;;;;270.65;250.13;;;;;;;;;;5010776;28;19913;-58
2023/08/23 12:19:39;;;;;;;267.13;249.63;;;;;;;;;;5010631;28;20018;-57
2023/08/23 12:22:06;;;;;;;;;;;;;;;;;;5010097;28;20472;-57
2023/08/23 12:24:31;;;;;;;256.15;235.93;;;;;;;;;;5004414;28;20007;-58
2023/08/23 12:26:56;;;;;;;;;;;;;;;;;;5007890;28;20056;-59
2023/08/23 12:29:23;;;;;;;245.80;228.40;;;;;;;;;;5010939;28;19906;-58
2023/08/23 12:31:49;;;;;;;296.42;274.73;;;;;;;;;;5010607;28;20026;-58
2023/08/23 12:34:14;;;;;;;;;;;;;;;;;;5008124;28;20117;-58
2023/08/23 12:36:39;;;;;;;248.63;230.57;;;;;;;;;;5008185;28;19917;-58
2023/08/23 12:39:04;;;;;;;;;;;;;;;;;;5010785;28;20109;-58
2023/08/23 12:41:30;;;;;;;269.50;250.13;;;;;;;;;;5010622;28;19948;-57
2023/08/23 12:43:55;;;;;;;;;;;;;;;;;;5011341;28;20029;-58
2023/08/23 12:46:20;;;;;;;271.25;252.93;;;;;;;;;;5010159;28;19912;-57
2023/08/23 12:48:45;;;;;;;;;;;;;;;;;;5004404;28;20022;-57
2023/08/23 12:51:10;;;;;;;216.25;200.65;;;;;;;;;;5007646;28;19917;-57
2023/08/23 12:53:35;;;;;;;;;;;;;;;;;;5004738;28;20121;-58
2023/08/23 12:56:01;;;;;;;261.20;239.00;;;;;;;;;;5010114;28;19917;-58
2023/08/23 12:58:26;;;;;;;228.33;213.67;;;;;;;;;;5014238;28;20469;-57
2023/08/23 13:00:51;;;;;;;;;;;;;;;;;;5015136;28;20026;-58
2023/08/23 13:03:16;;;;;;;246.05;226.73;;;;;;;;;;5012955;28;20510;-58
2023/08/23 13:05:41;;;;;;;;;;;;;;;;;;5014456;28;20094;-58
2023/08/23 13:08:06;;;;;;;281.23;258.50;;;;;;;;;;5010439;28;19925;-58
2023/08/23 13:10:31;;;;;;;;;;;;;;;;;;4998414;28;20915;-58
2023/08/23 13:12:57;;;;;;;241.93;224.35;;;;;;;;;;5001321;28;20360;-59
2023/08/23 13:15:22;;;;;;;;;;;;;;;;;;5012871;28;20484;-57
2023/08/23 13:17:47;;;;;;;220.93;204.40;;;;;;;;;;5005638;28;19916;-57
2023/08/23 13:20:12;;;;;;;;;;;;;;;;;;5005809;28;20749;-58
2023/08/23 13:22:38;;;;;;;269.07;246.80;;;;;;;;;;5012782;28;19909;-58
2023/08/23 13:25:03;;;;;;;232.77;216.07;;;;;;;;;;5010116;28;20362;-57
2023/08/23 13:27:28;;;;;;;315.05;291.25;;;;;;;;;;5005044;28;20022;-57
2023/08/23 13:29:53;;;;;;;;;;;;;;;;;;5006971;28;20022;-58
2023/08/23 13:32:18;;;;;;;277.10;254.25;;;;;;;;;;4994539;28;19917;-57
2023/08/23 13:34:43;;;;;;;;;;;;;;;;;;5004851;28;20569;-59
2023/08/23 13:37:09;;;;;;;255.93;235.23;;;;;;;;;;5000730;28;20504;-57
2023/08/23 13:39:34;;;;;;;;;;;;;;;;;;5008945;28;20076;-58
2023/08/23 13:41:59;;;;;;;267.63;246.10;;;;;;;;;;5006692;28;20391;-58
2023/08/23 13:44:24;;;;;;;290.00;268.43;;;;;;;;;;4996626;28;20034;-58
2023/08/23 13:46:49;;;;;;;;;;;;;;;;;;5003441;28;20577;-59
2023/08/23 13:49:15;;;;;;;281.17;259.73;;;;;;;;;;5004473;28;20025;-58
2023/08/23 13:51:40;;;;;;;;;;;;;;;;;;5009367;28;20045;-58
2023/08/23 13:54:05;;;;;;;260.75;239.45;;;;;;;;;;5002687;28;19913;-58
2023/08/23 13:56:30;;;;;;;;;;;;;;;;;;5005049;28;20022;-58
2023/08/23 13:58:57;;;;;;;306.90;284.83;;;;;;;;;;5006972;28;19917;-58